sensor_id;sensor_type;location;lat;lon;timestamp;pressure;altitude;pressure_sealevel;temperature;humidity
51829;BME280;37881;48.024;8.774;2023-08-31T00:01:06;93534.41;;;11.22;100.00
51829;BME280;37881;48.024;8.774;2023-08-31T00:03:33;93542.38;;;11.16;100.00
51829;BME280;37881;48.024;8.774;2023-08-31T00:06:03;93539.66;;;11.33;100.00
51829;BME280;37881;48.024;8.774;2023-08-31T00:08:30;93538.28;;;11.41;100.00
51829;BME280;37881;48.024;8.774;2023-08-31T00:10:58;93537.06;;;11.26;100.00
51829;BME280;37881;48.024;8.774;2023-08-31T00:13:25;93538.03;;;11.19;100.00
51829;BME280;37881;48.024;8.774;2023-08-31T00:15:57;93538.84;;;11.49;100.00
51829;BME280;37881;48.024;8.774;2023-08-31T00:18:25;93536.44;;;11.51;100.00
51829;BME280;37881;48.024;8.774;2023-08-31T00:20:52;93531.06;;;11.47;100.00
51829;BME280;37881;48.024;8.774;2023-08-31T00:23:19;93523.41;;;11.55;100.00
51829;BME280;37881;48.024;8.774;2023-08-31T00:25:48;93524.78;;;11.47;100.00
51829;BME280;37881;48.024;8.774;2023-08-31T00:28:15;93529.94;;;11.45;100.00
51829;BME280;37881;48.024;8.774;2023-08-31T00:30:44;93520.75;;;11.51;100.00
51829;BME280;37881;48.024;8.774;2023-08-31T00:33:12;93511.81;;;11.64;100.00
51829;BME280;37881;48.024;8.774;2023-08-31T00:35:39;93513.78;;;11.63;100.00
51829;BME280;37881;48.024;8.774;2023-08-31T00:38:13;93508.19;;;11.67;100.00
51829;BME280;37881;48.024;8.774;2023-08-31T00:40:44;93512.75;;;11.73;100.00
51829;BME280;37881;48.024;8.774;2023-08-31T00:43:14;93504.94;;;11.55;100.00
51829;BME280;37881;48.024;8.774;2023-08-31T00:45:43;93509.06;;;11.64;100.00
51829;BME280;37881;48.024;8.774;2023-08-31T00:48:11;93505.13;;;11.48;100.00
51829;BME280;37881;48.024;8.774;2023-08-31T00:50:38;93504.69;;;11.50;100.00
51829;BME280;37881;48.024;8.774;2023-08-31T00:53:05;93508.38;;;11.59;100.00
51829;BME280;37881;48.024;8.774;2023-08-31T00:55:33;93501.31;;;11.58;100.00
51829;BME280;37881;48.024;8.774;2023-08-31T00:58:00;93512.41;;;11.55;100.00
51829;BME280;37881;48.024;8.774;2023-08-31T01:00:38;93512.84;;;11.53;100.00
51829;BME280;37881;48.024;8.774;2023-08-31T01:06:07;93505.53;;;11.47;100.00
51829;BME280;37881;48.024;8.774;2023-08-31T01:08:50;93507.94;;;11.45;100.00
51829;BME280;37881;48.024;8.774;2023-08-31T01:14:18;93523.59;;;11.31;100.00
51829;BME280;37881;48.024;8.774;2023-08-31T01:16:48;93510.91;;;11.37;100.00
51829;BME280;37881;48.024;8.774;2023-08-31T01:19:48;93515.44;;;11.44;100.00
51829;BME280;37881;48.024;8.774;2023-08-31T01:22:24;93516.31;;;11.41;100.00
51829;BME280;37881;48.024;8.774;2023-08-31T01:24:54;93520.25;;;11.40;100.00
51829;BME280;37881;48.024;8.774;2023-08-31T01:27:21;93526.00;;;11.46;100.00
51829;BME280;37881;48.024;8.774;2023-08-31T01:29:50;93527.53;;;11.47;100.00
51829;BME280;37881;48.024;8.774;2023-08-31T01:32:16;93540.50;;;11.46;100.00
51829;BME280;37881;48.024;8.774;2023-08-31T01:34:43;93531.75;;;11.51;100.00
51829;BME280;37881;48.024;8.774;2023-08-31T01:37:24;93520.16;;;11.44;100.00
51829;BME280;37881;48.024;8.774;2023-08-31T01:39:56;93521.53;;;11.03;100.00
51829;BME280;37881;48.024;8.774;2023-08-31T01:42:26;93530.13;;;11.21;100.00
51829;BME280;37881;48.024;8.774;2023-08-31T01:44:55;93533.81;;;11.31;100.00
51829;BME280;37881;48.024;8.774;2023-08-31T01:47:23;93535.34;;;11.32;100.00
51829;BME280;37881;48.024;8.774;2023-08-31T01:49:52;93540.09;;;11.31;100.00
51829;BME280;37881;48.024;8.774;2023-08-31T01:52:19;93543.19;;;11.33;100.00
51829;BME280;37881;48.024;8.774;2023-08-31T01:54:46;93539.31;;;11.31;100.00
51829;BME280;37881;48.024;8.774;2023-08-31T01:57:13;93535.34;;;11.32;100.00
51829;BME280;37881;48.024;8.774;2023-08-31T01:59:39;93529.88;;;11.32;100.00
51829;BME280;37881;48.024;8.774;2023-08-31T02:02:06;93531.44;;;11.33;100.00
51829;BME280;37881;48.024;8.774;2023-08-31T02:04:33;93539.22;;;11.34;100.00
51829;BME280;37881;48.024;8.774;2023-08-31T02:07:00;93544.81;;;11.31;100.00
51829;BME280;37881;48.024;8.774;2023-08-31T02:09:26;93539.75;;;11.29;100.00
51829;BME280;37881;48.024;8.774;2023-08-31T02:11:53;93547.13;;;11.32;100.00
51829;BME280;37881;48.024;8.774;2023-08-31T02:14:20;93544.72;;;11.34;100.00
51829;BME280;37881;48.024;8.774;2023-08-31T02:16:46;93545.47;;;11.18;100.00
51829;BME280;37881;48.024;8.774;2023-08-31T02:19:13;93552.09;;;11.21;100.00
51829;BME280;37881;48.024;8.774;2023-08-31T02:21:40;93557.16;;;11.23;100.00
51829;BME280;37881;48.024;8.774;2023-08-31T02:24:07;93569.78;;;11.20;100.00
51829;BME280;37881;48.024;8.774;2023-08-31T02:26:35;93570.53;;;11.20;100.00
51829;BME280;37881;48.024;8.774;2023-08-31T02:29:03;93568.66;;;11.17;100.00
51829;BME280;37881;48.024;8.774;2023-08-31T02:31:30;93576.56;;;11.15;100.00
51829;BME280;37881;48.024;8.774;2023-08-31T02:33:57;93572.59;;;11.16;100.00
51829;BME280;37881;48.024;8.774;2023-08-31T02:36:24;93567.91;;;11.17;100.00
51829;BME280;37881;48.024;8.774;2023-08-31T02:38:51;93573.22;;;11.24;100.00
51829;BME280;37881;48.024;8.774;2023-08-31T02:41:19;93569.28;;;11.25;100.00
51829;BME280;37881;48.024;8.774;2023-08-31T02:43:46;93568.47;;;11.25;100.00
51829;BME280;37881;48.024;8.774;2023-08-31T02:46:12;93560.41;;;11.17;100.00
51829;BME280;37881;48.024;8.774;2023-08-31T02:48:39;93573.53;;;11.10;100.00
51829;BME280;37881;48.024;8.774;2023-08-31T02:51:06;93563.25;;;11.14;100.00
51829;BME280;37881;48.024;8.774;2023-08-31T02:53:33;93566.69;;;11.18;100.00
51829;BME280;37881;48.024;8.774;2023-08-31T02:56:00;93575.25;;;11.20;100.00
51829;BME280;37881;48.024;8.774;2023-08-31T02:58:27;93570.38;;;11.28;100.00
51829;BME280;37881;48.024;8.774;2023-08-31T03:00:54;93569.00;;;11.36;100.00
51829;BME280;37881;48.024;8.774;2023-08-31T03:03:22;93568.59;;;11.37;100.00
51829;BME280;37881;48.024;8.774;2023-08-31T03:05:55;93561.53;;;11.36;100.00
51829;BME280;37881;48.024;8.774;2023-08-31T03:08:22;93564.13;;;11.27;100.00
51829;BME280;37881;48.024;8.774;2023-08-31T03:10:49;93557.94;;;11.23;100.00
51829;BME280;37881;48.024;8.774;2023-08-31T03:13:16;93552.34;;;11.27;100.00
51829;BME280;37881;48.024;8.774;2023-08-31T03:15:42;93557.50;;;11.25;100.00
51829;BME280;37881;48.024;8.774;2023-08-31T03:18:09;93566.00;;;11.30;100.00
51829;BME280;37881;48.024;8.774;2023-08-31T03:20:36;93565.72;;;11.25;100.00
51829;BME280;37881;48.024;8.774;2023-08-31T03:23:03;93572.72;;;11.29;100.00
51829;BME280;37881;48.024;8.774;2023-08-31T03:25:29;93577.00;;;11.30;100.00
51829;BME280;37881;48.024;8.774;2023-08-31T03:27:56;93574.59;;;11.32;100.00
51829;BME280;37881;48.024;8.774;2023-08-31T03:30:23;93580.53;;;11.31;100.00
51829;BME280;37881;48.024;8.774;2023-08-31T03:32:50;93568.94;;;11.39;100.00
51829;BME280;37881;48.024;8.774;2023-08-31T03:35:17;93562.06;;;11.31;100.00
51829;BME280;37881;48.024;8.774;2023-08-31T03:37:47;93562.47;;;11.30;100.00
51829;BME280;37881;48.024;8.774;2023-08-31T03:40:14;93555.28;;;11.19;100.00
51829;BME280;37881;48.024;8.774;2023-08-31T03:42:40;93558.44;;;11.18;100.00
51829;BME280;37881;48.024;8.774;2023-08-31T03:45:07;93562.63;;;11.23;100.00
51829;BME280;37881;48.024;8.774;2023-08-31T03:47:34;93561.38;;;11.27;100.00
51829;BME280;37881;48.024;8.774;2023-08-31T03:50:01;93564.47;;;11.29;100.00
51829;BME280;37881;48.024;8.774;2023-08-31T03:52:28;93559.31;;;11.31;100.00
51829;BME280;37881;48.024;8.774;2023-08-31T03:54:55;93554.31;;;11.26;100.00
51829;BME280;37881;48.024;8.774;2023-08-31T03:57:22;93562.41;;;11.33;100.00
51829;BME280;37881;48.024;8.774;2023-08-31T03:59:48;93571.16;;;11.28;100.00
51829;BME280;37881;48.024;8.774;2023-08-31T04:02:15;93570.38;;;11.28;100.00
51829;BME280;37881;48.024;8.774;2023-08-31T04:04:42;93574.31;;;11.27;100.00
51829;BME280;37881;48.024;8.774;2023-08-31T04:07:09;93573.97;;;11.25;100.00
51829;BME280;37881;48.024;8.774;2023-08-31T04:09:35;93579.13;;;11.23;100.00
51829;BME280;37881;48.024;8.774;2023-08-31T04:12:02;93570.13;;;11.22;100.00
51829;BME280;37881;48.024;8.774;2023-08-31T04:14:29;93576.63;;;11.12;100.00
51829;BME280;37881;48.024;8.774;2023-08-31T04:16:56;93579.03;;;11.10;100.00
51829;BME280;37881;48.024;8.774;2023-08-31T04:19:23;93581.44;;;11.08;100.00
51829;BME280;37881;48.024;8.774;2023-08-31T04:21:50;93573.00;;;10.98;100.00
51829;BME280;37881;48.024;8.774;2023-08-31T04:24:16;93576.84;;;10.85;100.00
51829;BME280;37881;48.024;8.774;2023-08-31T04:26:43;93578.03;;;10.84;100.00
51829;BME280;37881;48.024;8.774;2023-08-31T04:29:11;93581.31;;;10.78;100.00
51829;BME280;37881;48.024;8.774;2023-08-31T04:31:38;93596.78;;;10.69;100.00
51829;BME280;37881;48.024;8.774;2023-08-31T04:34:05;93590.59;;;10.65;100.00
51829;BME280;37881;48.024;8.774;2023-08-31T04:36:32;93594.53;;;10.64;100.00
51829;BME280;37881;48.024;8.774;2023-08-31T04:38:59;93597.00;;;10.58;100.00
51829;BME280;37881;48.024;8.774;2023-08-31T04:41:25;93596.00;;;10.48;100.00
51829;BME280;37881;48.024;8.774;2023-08-31T04:43:52;93603.88;;;10.46;100.00
51829;BME280;37881;48.024;8.774;2023-08-31T04:46:19;93603.81;;;10.30;100.00
51829;BME280;37881;48.024;8.774;2023-08-31T04:48:46;93601.50;;;10.28;100.00
51829;BME280;37881;48.024;8.774;2023-08-31T04:51:33;93614.00;;;10.29;100.00
51829;BME280;37881;48.024;8.774;2023-08-31T04:54:00;93602.72;;;10.24;100.00
51829;BME280;37881;48.024;8.774;2023-08-31T04:56:32;93600.84;;;10.20;100.00
51829;BME280;37881;48.024;8.774;2023-08-31T04:59:01;93613.41;;;10.18;100.00
51829;BME280;37881;48.024;8.774;2023-08-31T05:01:29;93615.38;;;10.17;100.00
51829;BME280;37881;48.024;8.774;2023-08-31T05:03:56;93620.69;;;10.28;100.00
51829;BME280;37881;48.024;8.774;2023-08-31T05:06:24;93625.69;;;10.33;100.00
51829;BME280;37881;48.024;8.774;2023-08-31T05:08:51;93628.16;;;10.48;100.00
51829;BME280;37881;48.024;8.774;2023-08-31T05:11:17;93626.97;;;10.49;100.00
51829;BME280;37881;48.024;8.774;2023-08-31T05:13:44;93641.53;;;10.46;100.00
51829;BME280;37881;48.024;8.774;2023-08-31T05:16:11;93641.34;;;10.56;100.00
51829;BME280;37881;48.024;8.774;2023-08-31T05:18:38;93641.47;;;10.69;100.00
51829;BME280;37881;48.024;8.774;2023-08-31T05:21:06;93636.75;;;10.70;100.00
51829;BME280;37881;48.024;8.774;2023-08-31T05:23:33;93645.91;;;10.83;100.00
51829;BME280;37881;48.024;8.774;2023-08-31T05:26:00;93632.00;;;10.90;100.00
51829;BME280;37881;48.024;8.774;2023-08-31T05:28:28;93623.94;;;10.83;100.00
51829;BME280;37881;48.024;8.774;2023-08-31T05:30:56;93625.13;;;10.82;100.00
51829;BME280;37881;48.024;8.774;2023-08-31T05:33:24;93624.97;;;10.89;100.00
51829;BME280;37881;48.024;8.774;2023-08-31T05:35:55;93633.84;;;10.97;100.00
51829;BME280;37881;48.024;8.774;2023-08-31T05:38:22;93641.38;;;10.93;100.00
51829;BME280;37881;48.024;8.774;2023-08-31T05:40:50;93643.78;;;10.91;100.00
51829;BME280;37881;48.024;8.774;2023-08-31T05:43:17;93648.41;;;10.94;100.00
51829;BME280;37881;48.024;8.774;2023-08-31T05:45:43;93644.59;;;11.08;100.00
51829;BME280;37881;48.024;8.774;2023-08-31T05:48:10;93652.94;;;11.20;100.00
51829;BME280;37881;48.024;8.774;2023-08-31T05:50:37;93659.25;;;11.37;100.00
51829;BME280;37881;48.024;8.774;2023-08-31T05:53:04;93659.69;;;11.52;100.00
51829;BME280;37881;48.024;8.774;2023-08-31T05:55:32;93662.28;;;11.59;100.00
51829;BME280;37881;48.024;8.774;2023-08-31T05:57:59;93664.69;;;11.57;100.00
51829;BME280;37881;48.024;8.774;2023-08-31T06:00:27;93662.28;;;11.76;100.00
51829;BME280;37881;48.024;8.774;2023-08-31T06:02:54;93671.84;;;12.04;100.00
51829;BME280;37881;48.024;8.774;2023-08-31T06:05:21;93665.16;;;11.89;100.00
51829;BME280;37881;48.024;8.774;2023-08-31T06:07:48;93663.50;;;12.24;100.00
51829;BME280;37881;48.024;8.774;2023-08-31T06:10:15;93668.53;;;12.42;100.00
51829;BME280;37881;48.024;8.774;2023-08-31T06:12:42;93662.56;;;12.14;100.00
51829;BME280;37881;48.024;8.774;2023-08-31T06:15:09;93670.03;;;12.14;100.00
51829;BME280;37881;48.024;8.774;2023-08-31T06:17:36;93661.25;;;12.35;100.00
51829;BME280;37881;48.024;8.774;2023-08-31T06:20:03;93662.72;;;12.07;100.00
51829;BME280;37881;48.024;8.774;2023-08-31T06:22:32;93668.41;;;11.67;100.00
51829;BME280;37881;48.024;8.774;2023-08-31T06:24:59;93666.84;;;12.61;100.00
51829;BME280;37881;48.024;8.774;2023-08-31T06:27:26;93666.16;;;13.28;100.00
51829;BME280;37881;48.024;8.774;2023-08-31T06:29:52;93667.94;;;12.93;100.00
51829;BME280;37881;48.024;8.774;2023-08-31T06:32:19;93673.50;;;12.76;100.00
51829;BME280;37881;48.024;8.774;2023-08-31T06:34:46;93686.78;;;12.65;100.00
51829;BME280;37881;48.024;8.774;2023-08-31T06:37:13;93689.53;;;12.65;100.00
51829;BME280;37881;48.024;8.774;2023-08-31T06:39:39;93694.53;;;12.70;100.00
51829;BME280;37881;48.024;8.774;2023-08-31T06:42:07;93692.00;;;13.05;100.00
51829;BME280;37881;48.024;8.774;2023-08-31T06:44:34;93698.69;;;12.62;100.00
51829;BME280;37881;48.024;8.774;2023-08-31T06:47:01;93699.81;;;12.77;100.00
51829;BME280;37881;48.024;8.774;2023-08-31T06:49:27;93708.59;;;13.02;100.00
51829;BME280;37881;48.024;8.774;2023-08-31T06:51:54;93699.66;;;12.97;100.00
51829;BME280;37881;48.024;8.774;2023-08-31T06:54:21;93711.09;;;12.83;100.00
51829;BME280;37881;48.024;8.774;2023-08-31T06:56:48;93707.59;;;12.95;100.00
51829;BME280;37881;48.024;8.774;2023-08-31T06:59:15;93707.59;;;12.95;100.00
51829;BME280;37881;48.024;8.774;2023-08-31T07:01:42;93700.59;;;13.07;100.00
51829;BME280;37881;48.024;8.774;2023-08-31T07:04:08;93698.47;;;12.98;100.00
51829;BME280;37881;48.024;8.774;2023-08-31T07:06:35;93698.03;;;13.29;100.00
51829;BME280;37881;48.024;8.774;2023-08-31T07:09:03;93708.09;;;13.87;100.00
51829;BME280;37881;48.024;8.774;2023-08-31T07:11:32;93723.22;;;13.70;100.00
51829;BME280;37881;48.024;8.774;2023-08-31T07:13:59;93720.25;;;13.77;100.00
51829;BME280;37881;48.024;8.774;2023-08-31T07:16:26;93719.00;;;13.78;100.00
51829;BME280;37881;48.024;8.774;2023-08-31T07:18:53;93725.84;;;13.86;100.00
51829;BME280;37881;48.024;8.774;2023-08-31T07:21:20;93732.03;;;13.77;100.00
51829;BME280;37881;48.024;8.774;2023-08-31T07:23:47;93738.41;;;13.62;100.00
51829;BME280;37881;48.024;8.774;2023-08-31T07:26:14;93743.75;;;14.07;100.00
51829;BME280;37881;48.024;8.774;2023-08-31T07:28:42;93747.41;;;14.77;100.00
51829;BME280;37881;48.024;8.774;2023-08-31T07:31:10;93744.53;;;14.81;100.00
51829;BME280;37881;48.024;8.774;2023-08-31T07:33:37;93747.97;;;15.51;100.00
51829;BME280;37881;48.024;8.774;2023-08-31T07:36:05;93757.25;;;15.89;100.00
51829;BME280;37881;48.024;8.774;2023-08-31T07:38:33;93748.69;;;18.03;100.00
51829;BME280;37881;48.024;8.774;2023-08-31T07:41:00;93746.22;;;19.20;100.00
51829;BME280;37881;48.024;8.774;2023-08-31T07:43:27;93751.66;;;21.86;87.32
51829;BME280;37881;48.024;8.774;2023-08-31T07:45:54;93757.78;;;21.64;86.01
51829;BME280;37881;48.024;8.774;2023-08-31T07:48:21;93744.06;;;22.87;73.48
51829;BME280;37881;48.024;8.774;2023-08-31T07:50:48;93739.78;;;22.98;76.34
51829;BME280;37881;48.024;8.774;2023-08-31T07:53:15;93735.31;;;23.83;76.36
51829;BME280;37881;48.024;8.774;2023-08-31T07:55:53;93747.38;;;23.46;68.99
51829;BME280;37881;48.024;8.774;2023-08-31T07:58:21;93736.97;;;23.52;63.23
51829;BME280;37881;48.024;8.774;2023-08-31T08:00:48;93737.88;;;22.78;64.51
51829;BME280;37881;48.024;8.774;2023-08-31T08:03:16;93737.25;;;26.18;53.03
51829;BME280;37881;48.024;8.774;2023-08-31T08:05:43;93738.13;;;28.55;47.76
51829;BME280;37881;48.024;8.774;2023-08-31T08:08:10;93733.84;;;28.67;40.32
51829;BME280;37881;48.024;8.774;2023-08-31T08:10:37;93744.19;;;24.94;49.72
51829;BME280;37881;48.024;8.774;2023-08-31T08:13:03;93743.50;;;26.41;46.92
51829;BME280;37881;48.024;8.774;2023-08-31T08:15:31;93755.50;;;26.05;47.74
51829;BME280;37881;48.024;8.774;2023-08-31T08:17:58;93754.28;;;25.48;42.05
51829;BME280;37881;48.024;8.774;2023-08-31T08:20:24;93760.25;;;26.58;41.76
51829;BME280;37881;48.024;8.774;2023-08-31T08:22:51;93771.56;;;24.54;46.53
51829;BME280;37881;48.024;8.774;2023-08-31T08:25:21;93770.25;;;24.16;46.23
51829;BME280;37881;48.024;8.774;2023-08-31T08:27:48;93766.94;;;24.34;46.79
51829;BME280;37881;48.024;8.774;2023-08-31T08:30:15;93767.44;;;24.10;47.32
51829;BME280;37881;48.024;8.774;2023-08-31T08:32:42;93780.44;;;22.50;49.78
51829;BME280;37881;48.024;8.774;2023-08-31T08:35:09;93779.19;;;24.42;46.75
51829;BME280;37881;48.024;8.774;2023-08-31T08:37:35;93785.03;;;24.16;44.89
51829;BME280;37881;48.024;8.774;2023-08-31T08:40:02;93781.75;;;24.63;46.29
51829;BME280;37881;48.024;8.774;2023-08-31T08:42:32;93784.66;;;26.08;43.16
51829;BME280;37881;48.024;8.774;2023-08-31T08:45:03;93781.16;;;25.26;44.04
51829;BME280;37881;48.024;8.774;2023-08-31T08:47:31;93778.72;;;25.64;44.19
51829;BME280;37881;48.024;8.774;2023-08-31T08:49:59;93778.69;;;25.70;43.08
51829;BME280;37881;48.024;8.774;2023-08-31T08:52:27;93798.03;;;26.68;41.80
51829;BME280;37881;48.024;8.774;2023-08-31T08:54:54;93785.00;;;27.44;38.46
51829;BME280;37881;48.024;8.774;2023-08-31T08:57:21;93786.91;;;27.36;36.85
51829;BME280;37881;48.024;8.774;2023-08-31T08:59:48;93796.22;;;27.01;39.64
51829;BME280;37881;48.024;8.774;2023-08-31T09:02:15;93802.88;;;24.07;40.07
51829;BME280;37881;48.024;8.774;2023-08-31T09:04:42;93801.59;;;24.99;41.85
51829;BME280;37881;48.024;8.774;2023-08-31T09:07:08;93802.19;;;25.67;40.85
51829;BME280;37881;48.024;8.774;2023-08-31T09:09:49;93812.63;;;24.51;42.42
51829;BME280;37881;48.024;8.774;2023-08-31T09:12:17;93805.94;;;24.15;42.41
51829;BME280;37881;48.024;8.774;2023-08-31T09:14:56;93819.28;;;22.74;45.83
51829;BME280;37881;48.024;8.774;2023-08-31T09:17:24;93812.41;;;21.91;47.79
51829;BME280;37881;48.024;8.774;2023-08-31T09:20:00;93815.81;;;20.78;52.51
51829;BME280;37881;48.024;8.774;2023-08-31T09:22:33;93818.50;;;21.89;49.03
51829;BME280;37881;48.024;8.774;2023-08-31T09:25:00;93821.63;;;22.87;46.07
51829;BME280;37881;48.024;8.774;2023-08-31T09:27:27;93817.19;;;25.05;41.14
51829;BME280;37881;48.024;8.774;2023-08-31T09:29:54;93813.81;;;25.35;37.84
51829;BME280;37881;48.024;8.774;2023-08-31T09:32:21;93816.38;;;24.20;38.50
51829;BME280;37881;48.024;8.774;2023-08-31T09:34:48;93819.88;;;22.89;43.00
51829;BME280;37881;48.024;8.774;2023-08-31T09:37:25;93821.28;;;23.60;41.36
51829;BME280;37881;48.024;8.774;2023-08-31T09:39:51;93816.66;;;22.65;41.37
51829;BME280;37881;48.024;8.774;2023-08-31T09:42:20;93820.03;;;24.66;39.37
51829;BME280;37881;48.024;8.774;2023-08-31T09:44:49;93815.84;;;26.04;38.05
51829;BME280;37881;48.024;8.774;2023-08-31T09:47:17;93811.03;;;29.02;32.86
51829;BME280;37881;48.024;8.774;2023-08-31T09:49:45;93809.13;;;29.37;31.47
51829;BME280;37881;48.024;8.774;2023-08-31T09:52:12;93805.66;;;29.58;29.60
51829;BME280;37881;48.024;8.774;2023-08-31T09:54:40;93817.16;;;27.05;33.01
51829;BME280;37881;48.024;8.774;2023-08-31T09:57:09;93815.69;;;27.29;32.60
51829;BME280;37881;48.024;8.774;2023-08-31T09:59:38;93815.75;;;26.93;31.91
51829;BME280;37881;48.024;8.774;2023-08-31T10:02:06;93813.25;;;26.84;33.40
51829;BME280;37881;48.024;8.774;2023-08-31T10:04:34;93813.16;;;28.32;32.02
51829;BME280;37881;48.024;8.774;2023-08-31T10:07:04;93809.75;;;27.02;33.38
51829;BME280;37881;48.024;8.774;2023-08-31T10:09:32;93808.19;;;28.00;32.37
51829;BME280;37881;48.024;8.774;2023-08-31T10:11:59;93808.25;;;27.01;32.44
51829;BME280;37881;48.024;8.774;2023-08-31T10:14:27;93800.53;;;27.02;33.11
51829;BME280;37881;48.024;8.774;2023-08-31T10:16:56;93801.56;;;25.38;36.46
51829;BME280;37881;48.024;8.774;2023-08-31T10:19:24;93808.75;;;25.86;34.66
51829;BME280;37881;48.024;8.774;2023-08-31T10:21:51;93806.94;;;27.33;32.69
51829;BME280;37881;48.024;8.774;2023-08-31T10:24:17;93806.09;;;25.47;34.99
51829;BME280;37881;48.024;8.774;2023-08-31T10:26:44;93811.31;;;24.19;37.36
51829;BME280;37881;48.024;8.774;2023-08-31T10:29:25;93809.81;;;24.68;36.96
51829;BME280;37881;48.024;8.774;2023-08-31T10:31:53;93807.97;;;24.09;37.54
51829;BME280;37881;48.024;8.774;2023-08-31T10:34:34;93799.81;;;24.22;39.14
51829;BME280;37881;48.024;8.774;2023-08-31T10:37:01;93802.19;;;23.58;39.19
51829;BME280;37881;48.024;8.774;2023-08-31T10:39:39;93811.91;;;22.77;39.91
51829;BME280;37881;48.024;8.774;2023-08-31T10:42:06;93807.06;;;22.13;41.43
51829;BME280;37881;48.024;8.774;2023-08-31T10:44:34;93798.81;;;21.78;43.14
51829;BME280;37881;48.024;8.774;2023-08-31T10:47:03;93801.75;;;21.07;43.54
51829;BME280;37881;48.024;8.774;2023-08-31T10:49:31;93809.84;;;20.70;48.07
51829;BME280;37881;48.024;8.774;2023-08-31T10:52:16;93809.00;;;20.99;46.58
51829;BME280;37881;48.024;8.774;2023-08-31T10:54:55;93809.81;;;20.85;46.35
51829;BME280;37881;48.024;8.774;2023-08-31T10:57:30;93804.13;;;20.59;46.30
51829;BME280;37881;48.024;8.774;2023-08-31T10:59:57;93808.44;;;20.60;47.69
51829;BME280;37881;48.024;8.774;2023-08-31T11:05:14;93809.13;;;21.92;44.57
51829;BME280;37881;48.024;8.774;2023-08-31T11:07:46;93804.78;;;21.65;45.07
51829;BME280;37881;48.024;8.774;2023-08-31T11:12:47;93793.97;;;24.31;39.42
51829;BME280;37881;48.024;8.774;2023-08-31T11:15:17;93788.06;;;23.24;39.80
51829;BME280;37881;48.024;8.774;2023-08-31T11:17:45;93792.28;;;23.63;40.95
51829;BME280;37881;48.024;8.774;2023-08-31T11:20:14;93798.41;;;23.67;40.76
51829;BME280;37881;48.024;8.774;2023-08-31T11:22:44;93791.78;;;23.70;40.87
51829;BME280;37881;48.024;8.774;2023-08-31T11:25:13;93791.78;;;23.70;38.45
51829;BME280;37881;48.024;8.774;2023-08-31T11:27:40;93794.97;;;24.28;38.39
51829;BME280;37881;48.024;8.774;2023-08-31T11:30:16;93804.22;;;22.71;39.29
51829;BME280;37881;48.024;8.774;2023-08-31T11:32:47;93797.69;;;22.80;40.10
51829;BME280;37881;48.024;8.774;2023-08-31T11:35:15;93798.63;;;23.03;39.93
51829;BME280;37881;48.024;8.774;2023-08-31T11:37:49;93808.81;;;22.37;42.69
51829;BME280;37881;48.024;8.774;2023-08-31T11:40:16;93811.50;;;22.58;40.33
51829;BME280;37881;48.024;8.774;2023-08-31T11:42:43;93806.44;;;22.56;40.53
51829;BME280;37881;48.024;8.774;2023-08-31T11:45:11;93816.81;;;22.50;42.24
51829;BME280;37881;48.024;8.774;2023-08-31T11:47:40;93806.81;;;22.17;41.98
51829;BME280;37881;48.024;8.774;2023-08-31T11:50:07;93795.41;;;22.21;41.63
51829;BME280;37881;48.024;8.774;2023-08-31T11:52:34;93791.31;;;22.74;41.50
51829;BME280;37881;48.024;8.774;2023-08-31T11:55:02;93802.44;;;22.10;47.14
51829;BME280;37881;48.024;8.774;2023-08-31T11:57:29;93802.41;;;22.63;42.92
51829;BME280;37881;48.024;8.774;2023-08-31T11:59:56;93794.72;;;22.00;43.30
51829;BME280;37881;48.024;8.774;2023-08-31T12:02:23;93781.31;;;22.04;41.85
51829;BME280;37881;48.024;8.774;2023-08-31T12:04:50;93790.94;;;22.03;42.77
51829;BME280;37881;48.024;8.774;2023-08-31T12:07:18;93788.56;;;22.48;43.41
51829;BME280;37881;48.024;8.774;2023-08-31T12:09:45;93791.75;;;22.09;45.19
51829;BME280;37881;48.024;8.774;2023-08-31T12:12:17;93791.03;;;21.41;46.55
51829;BME280;37881;48.024;8.774;2023-08-31T12:14:46;93789.13;;;21.12;47.79
51829;BME280;37881;48.024;8.774;2023-08-31T12:17:13;93794.91;;;21.08;46.69
51829;BME280;37881;48.024;8.774;2023-08-31T12:19:45;93797.03;;;20.78;47.42
51829;BME280;37881;48.024;8.774;2023-08-31T12:22:11;93791.31;;;20.52;48.75
51829;BME280;37881;48.024;8.774;2023-08-31T12:24:41;93791.09;;;20.70;49.32
51829;BME280;37881;48.024;8.774;2023-08-31T12:27:08;93789.03;;;20.86;49.20
51829;BME280;37881;48.024;8.774;2023-08-31T12:29:35;93794.00;;;20.97;48.58
51829;BME280;37881;48.024;8.774;2023-08-31T12:32:02;93789.66;;;20.75;50.05
51829;BME280;37881;48.024;8.774;2023-08-31T12:34:29;93793.03;;;21.00;49.90
51829;BME280;37881;48.024;8.774;2023-08-31T12:36:59;93797.50;;;21.12;49.12
51829;BME280;37881;48.024;8.774;2023-08-31T12:39:27;93791.53;;;21.19;49.55
51829;BME280;37881;48.024;8.774;2023-08-31T12:41:54;93787.91;;;20.12;50.00
51829;BME280;37881;48.024;8.774;2023-08-31T12:44:31;93794.53;;;20.80;50.94
51829;BME280;37881;48.024;8.774;2023-08-31T12:46:58;93800.78;;;21.10;51.50
51829;BME280;37881;48.024;8.774;2023-08-31T12:49:24;93786.69;;;21.40;48.02
51829;BME280;37881;48.024;8.774;2023-08-31T12:51:51;93781.78;;;20.73;49.32
51829;BME280;37881;48.024;8.774;2023-08-31T12:54:18;93789.25;;;20.17;51.95
51829;BME280;37881;48.024;8.774;2023-08-31T12:56:45;93784.78;;;20.55;50.22
51829;BME280;37881;48.024;8.774;2023-08-31T12:59:12;93778.06;;;20.47;51.70
51829;BME280;37881;48.024;8.774;2023-08-31T13:01:39;93777.03;;;20.14;51.84
51829;BME280;37881;48.024;8.774;2023-08-31T13:04:05;93781.75;;;19.79;51.41
51829;BME280;37881;48.024;8.774;2023-08-31T13:06:32;93773.75;;;20.31;51.33
51829;BME280;37881;48.024;8.774;2023-08-31T13:08:59;93773.84;;;20.37;51.08
51829;BME280;37881;48.024;8.774;2023-08-31T13:11:26;93773.06;;;20.51;51.59